East Hickory, Pennsylvania
Current Conditions -  °F | °C
As of 10:15 AM on Thursday 30 Oct 2014 (Local Time) from KFKL Reporting Station
Overcast Overcast  
Wind Chill:   Ceiling: 3200
Heat Index:   Visibility: 10mi
Dew Point:   Wind: 3mph
Humidity: 81%   Direction: 320°NW
Pressure: 30.1"   Gusts: NA
Location:  41.58°N, 79.4°W
Report Text: KFKL 301415Z 32003KT 10SM SCT008 BKN032 OVC042 06/03 A3010 RMK AO1
Loading
Personal Weather Stations






























Interactive Weather Map
Tropical Storm Tracking
New forecast layout! Learn more

10-Day Weather Forecast

Advertisements
Track Severe Weather on mobile